Naka-mobetsu, Japan

4:25 PM JST on 四月 29, 2017 (GMT +0900)
Monbetsu | | Change Station

高度 82 ft 44.30 °N, 143.40 °E | Updated 25 minutes ago

Scattered Clouds
やや曇
50 °F
体感気温 50 °F
10
風 変数 風 から 東南東

今日
高い -- | 低 -- °F
--% 降水確率
昨日
高い -- | 低 -- °F
Precip. -- インチ
気圧 29.59 インチ
視程 6.2 マイル
わずか 5000 ft
やや曇 8000 ft
露点温度 37 °F
湿度 62%
降水 0.00 インチ
積雪深 利用不可。
4:21 AM 6:27 PM
三日月, 11% visible
METAR RJEB 290700Z 11009KT 9999 FEW050 SCT080 10/03 Q1002
気圧 29.59 インチ
視程 6.2 マイル
わずか 5000 ft
やや曇 8000 ft
露点温度 37 °F
湿度 62%
降水 0.00 インチ
積雪深 利用不可。
4:21 AM 6:27 PM
三日月, 11% visible
METAR RJEB 290700Z 11009KT 9999 FEW050 SCT080 10/03 Q1002

Get Severe Weather Alerts

Thanks for signing up!

Be on the lookout for a verification email in your inbox.

You'll start receiving the daily forecast at 8 AM.

×

10-Day Weather Forecast

No radar image for this location.
×

Almanac

天文

Apr. 29, 2017 入り
実時間
常用薄明
航海薄明
天文薄明
可視光の長さ
可照時間
Tomorrow will be .
, % of the Moon is Illuminated

今日の極値

Country Highs Country Lows

Community

WunderBlog® & News

Nearby

空気品質

  空気品質 大気質指数 汚染物質
Not available.

積雪深

Station Depth 高度

地震活動

Distance Mag. Time & Date
Minimum magnitude displayed is 2.5.

沿岸の水温

地名 気温

Stations

最寄りの気象観測所

観測所位置 温度 体感気温(寒さ) 露点温度 湿度 Precip. 高度 更新日時 タイプする